Time;durP1;ratioP1;P1;durP2;ratioP2;P2;SDS_P1;SDS_P2;PMS_P1;PMS_P2;Temp;Humidity;BMP_temperature;BMP_pressure;BME280_temperature;BME280_humidity;BME280_pressure;Samples;Min_cycle;Max_cycle;Signal;HPM_P1;HPM_P2
2022/05/31 00:00:15;;;;;;;6.53;3.83;;;8.90;99.90;;;;;;5013657;28;20037;-75
2022/05/31 00:02:42;;;;;;;3.13;2.83;;;8.90;99.90;;;;;;5013366;28;20033;-75
2022/05/31 00:05:09;;;;;;;6.43;3.28;;;8.80;99.90;;;;;;5022547;28;20026;-76
2022/05/31 00:07:39;;;;;;;5.25;3.30;;;8.70;99.90;;;;;;5021516;28;20090;-75
2022/05/31 00:10:06;;;;;;;6.70;3.60;;;8.70;99.90;;;;;;5023301;28;20051;-75
2022/05/31 00:12:32;;;;;;;6.45;3.55;;;8.70;99.90;;;;;;5020446;28;20029;-75
2022/05/31 00:14:59;;;;;;;4.30;3.38;;;8.70;99.90;;;;;;5014834;28;20181;-75
2022/05/31 00:17:26;;;;;;;4.88;3.00;;;8.60;99.90;;;;;;5036475;28;20169;-76
2022/05/31 00:19:52;;;;;;;5.63;3.58;;;8.60;99.90;;;;;;5023345;28;20442;-76
2022/05/31 00:22:21;;;;;;;6.03;4.22;;;8.50;99.90;;;;;;5004360;28;20048;-76
2022/05/31 00:24:47;;;;;;;6.80;4.63;;;8.50;99.90;;;;;;5003827;28;20532;-76
2022/05/31 00:27:16;;;;;;;6.70;4.35;;;8.50;99.90;;;;;;5024578;28;20106;-76
2022/05/31 00:29:41;;;;;;;5.25;3.88;;;8.40;99.90;;;;;;5017915;28;20567;-76
2022/05/31 00:32:11;;;;;;;6.03;4.03;;;8.40;99.90;;;;;;5015271;28;20132;-75
2022/05/31 00:34:40;;;;;;;6.18;4.03;;;8.30;99.90;;;;;;5015356;28;20349;-76
2022/05/31 00:37:07;;;;;;;5.47;4.15;;;8.40;99.90;;;;;;5028456;28;20041;-76
2022/05/31 00:39:33;;;;;;;4.70;3.92;;;8.40;99.90;;;;;;5039890;28;20159;-75
2022/05/31 00:42:03;;;;;;;5.82;3.90;;;8.40;99.90;;;;;;5016208;28;20030;-75
2022/05/31 00:44:29;;;;;;;6.80;4.35;;;8.50;99.90;;;;;;5017862;28;20044;-76
2022/05/31 00:47:07;;;;;;;6.03;4.05;;;8.50;99.90;;;;;;5016359;28;20053;-76
2022/05/31 00:49:48;;;;;;;6.90;4.10;;;8.50;99.90;;;;;;5020293;28;20021;-76
2022/05/31 00:52:19;;;;;;;4.32;3.47;;;8.60;99.90;;;;;;5009851;28;20072;-75
2022/05/31 00:54:51;;;;;;;4.95;3.75;;;8.60;99.90;;;;;;5021180;28;20116;-75
2022/05/31 00:57:17;;;;;;;5.40;3.47;;;8.60;99.90;;;;;;5019024;28;20052;-75
2022/05/31 00:59:54;;;;;;;4.93;3.85;;;8.70;99.90;;;;;;5022657;28;20037;-75
2022/05/31 01:02:21;;;;;;;5.47;4.15;;;8.80;99.90;;;;;;5022682;28;20091;-76
2022/05/31 01:04:58;;;;;;;5.95;3.88;;;8.80;99.90;;;;;;5022313;28;20500;-75
2022/05/31 01:07:24;;;;;;;7.47;4.20;;;8.80;99.90;;;;;;5022811;28;20508;-75
2022/05/31 01:09:50;;;;;;;6.78;3.75;;;8.90;99.90;;;;;;5022197;28;20104;-75
2022/05/31 01:12:17;;;;;;;5.68;3.55;;;8.90;99.90;;;;;;5026313;28;20505;-76
2022/05/31 01:14:43;;;;;;;6.28;4.68;;;8.90;99.90;;;;;;5022206;28;20512;-75
2022/05/31 01:17:14;;;;;;;7.72;4.60;;;8.90;99.90;;;;;;5022192;28;20037;-75
2022/05/31 01:19:55;;;;;;;7.95;4.30;;;9.00;99.90;;;;;;5022172;28;20535;-76
2022/05/31 01:22:23;;;;;;;6.38;4.30;;;9.10;99.90;;;;;;5018780;28;20037;-75
2022/05/31 01:25:02;;;;;;;6.45;4.22;;;9.10;99.90;;;;;;5021550;28;20041;-75
2022/05/31 01:27:43;;;;;;;5.80;3.97;;;9.10;99.90;;;;;;5040133;28;20476;-75
2022/05/31 01:30:10;;;;;;;5.03;4.22;;;9.20;99.90;;;;;;5009136;28;20053;-75
2022/05/31 01:32:41;;;;;;;7.03;4.15;;;9.20;99.90;;;;;;5000653;28;20037;-76
2022/05/31 01:35:18;;;;;;;5.88;3.47;;;9.30;99.90;;;;;;5001961;28;20096;-75
2022/05/31 01:38:02;;;;;;;4.75;3.20;;;9.30;99.90;;;;;;5002641;28;20094;-75
2022/05/31 01:40:54;;;;;;;3.70;3.40;;;9.30;99.90;;;;;;5004111;28;20030;-75
2022/05/31 01:43:22;;;;;;;6.95;3.15;;;9.40;99.90;;;;;;5020348;28;20048;-74
2022/05/31 01:45:56;;;;;;;6.15;3.38;;;9.40;99.90;;;;;;5016623;28;20022;-75
2022/05/31 01:48:24;;;;;;;4.15;3.30;;;9.30;99.90;;;;;;5003370;28;20073;-75
2022/05/31 01:50:50;;;;;;;5.85;4.00;;;9.20;99.90;;;;;;5013478;28;20040;-75
2022/05/31 01:53:16;;;;;;;5.82;4.28;;;9.10;99.90;;;;;;5017652;28;20037;-75
2022/05/31 01:55:43;;;;;;;5.78;4.45;;;9.10;99.90;;;;;;5019197;28;20076;-75
2022/05/31 01:58:16;;;;;;;6.47;4.43;;;9.00;99.90;;;;;;5034078;28;20623;-75
2022/05/31 02:00:41;;;;;;;4.55;3.83;;;8.90;99.90;;;;;;5017871;28;20108;-75
2022/05/31 02:03:08;;;;;;;6.97;5.35;;;8.90;99.90;;;;;;5021516;28;20025;-76
2022/05/31 02:05:34;;;;;;;4.43;3.55;;;8.90;99.90;;;;;;5023442;28;20041;-75
2022/05/31 02:08:02;;;;;;;7.65;4.40;;;8.90;99.90;;;;;;5005084;28;20494;-75
2022/05/31 02:10:29;;;;;;;5.50;4.20;;;8.90;99.90;;;;;;5023082;28;20033;-75
2022/05/31 02:12:55;;;;;;;4.32;3.90;;;9.00;99.90;;;;;;5023927;28;20021;-75
2022/05/31 02:15:23;;;;;;;7.82;4.88;;;9.00;99.90;;;;;;5024605;28;20041;-76
2022/05/31 02:17:48;;;;;;;7.90;5.03;;;9.00;99.90;;;;;;5024966;28;20053;-75
2022/05/31 02:20:14;;;;;;;7.68;4.88;;;9.00;99.90;;;;;;5024597;28;20061;-74
2022/05/31 02:22:40;;;;;;;7.43;5.40;;;9.10;99.90;;;;;;5023062;28;20044;-76
2022/05/31 02:25:07;;;;;;;8.57;5.47;;;9.20;99.90;;;;;;5009728;28;20049;-75
2022/05/31 02:27:32;;;;;;;8.95;4.82;;;9.20;99.90;;;;;;5024136;28;20025;-75
2022/05/31 02:29:58;;;;;;;7.63;5.55;;;9.20;99.90;;;;;;5020391;28;20041;-75
2022/05/31 02:32:24;;;;;;;7.45;5.38;;;9.20;99.90;;;;;;5031722;28;20040;-75
2022/05/31 02:34:51;;;;;;;7.00;5.30;;;9.30;99.90;;;;;;5023655;28;20439;-75
2022/05/31 02:37:18;;;;;;;8.02;4.80;;;9.30;99.90;;;;;;5013756;28;20074;-75
2022/05/31 02:39:44;;;;;;;7.88;5.05;;;9.30;99.90;;;;;;5007205;28;20544;-76
2022/05/31 02:42:11;;;;;;;8.82;5.28;;;9.30;99.90;;;;;;5014620;28;20036;-75
2022/05/31 02:44:38;;;;;;;5.75;5.03;;;9.40;99.90;;;;;;5016404;28;20456;-75
2022/05/31 02:47:04;;;;;;;8.25;5.53;;;9.40;99.90;;;;;;5006637;28;20034;-75
2022/05/31 02:49:30;;;;;;;7.50;5.07;;;9.40;99.90;;;;;;5014030;28;20041;-75
2022/05/31 02:51:58;;;;;;;6.20;4.88;;;9.40;99.90;;;;;;5019083;28;20034;-75
2022/05/31 02:54:23;;;;;;;11.00;4.82;;;9.50;99.90;;;;;;5007902;28;20033;-75
2022/05/31 02:56:49;;;;;;;7.32;5.50;;;9.50;99.90;;;;;;5017035;28;20025;-75
2022/05/31 02:59:15;;;;;;;9.15;5.38;;;9.50;99.90;;;;;;5021903;28;20029;-75
2022/05/31 03:01:42;;;;;;;5.13;3.70;;;9.50;99.90;;;;;;5009456;28;20456;-76
2022/05/31 03:04:09;;;;;;;6.72;5.13;;;9.50;99.90;;;;;;5033175;28;20412;-75
2022/05/31 03:06:35;;;;;;;5.55;4.57;;;9.50;99.90;;;;;;5039746;28;20037;-75
2022/05/31 03:09:01;;;;;;;8.00;5.00;;;9.60;99.90;;;;;;5007566;28;20030;-75
2022/05/31 03:11:49;;;;;;;6.50;4.40;;;9.60;99.90;;;;;;5019508;28;21491;-75
2022/05/31 03:14:29;;;;;;;5.35;4.30;;;9.60;99.90;;;;;;5013707;28;20079;-75
2022/05/31 03:17:03;;;;;;;4.45;3.67;;;9.60;99.90;;;;;;5004609;28;20049;-76
2022/05/31 03:19:40;;;;;;;7.38;4.38;;;9.60;99.90;;;;;;5006121;28;20540;-75
2022/05/31 03:22:11;;;;;;;5.38;4.85;;;9.60;99.90;;;;;;5004996;28;20045;-76
2022/05/31 03:24:49;;;;;;;6.72;4.22;;;9.40;99.90;;;;;;5021690;28;20040;-75
2022/05/31 03:27:14;;;;;;;8.10;3.40;;;9.40;99.90;;;;;;5020703;28;20029;-76
2022/05/31 03:29:45;;;;;;;4.25;3.85;;;9.50;99.90;;;;;;5005195;28;20041;-76
2022/05/31 03:32:12;;;;;;;5.53;3.70;;;9.50;99.90;;;;;;5005420;28;20069;-75
2022/05/31 03:34:38;;;;;;;4.30;3.28;;;9.50;99.90;;;;;;5020288;28;20028;-75
2022/05/31 03:37:04;;;;;;;6.28;3.92;;;9.50;99.90;;;;;;4999563;28;20038;-75
2022/05/31 03:39:30;;;;;;;6.53;4.68;;;9.40;99.90;;;;;;5006337;28;20209;-75
2022/05/31 03:41:56;;;;;;;3.17;2.95;;;9.40;99.90;;;;;;5014844;28;20087;-76
2022/05/31 03:44:21;;;;;;;2.65;2.45;;;9.40;99.90;;;;;;5006275;28;20109;-75
2022/05/31 03:46:47;;;;;;;5.75;2.78;;;9.40;99.90;;;;;;5043148;28;20029;-75
2022/05/31 03:49:14;;;;;;;3.40;2.92;;;9.50;99.90;;;;;;5025899;28;20960;-75
2022/05/31 03:51:40;;;;;;;3.63;2.30;;;9.50;99.90;;;;;;5022936;28;20576;-75
2022/05/31 03:54:05;;;;;;;3.47;2.50;;;9.60;99.90;;;;;;5015334;28;20044;-75
2022/05/31 03:56:31;;;;;;;3.75;3.35;;;9.60;99.90;;;;;;5024631;28;20045;-75
2022/05/31 03:58:56;;;;;;;4.13;3.70;;;9.60;99.90;;;;;;5013202;28;20033;-74
2022/05/31 04:01:22;;;;;;;4.28;3.78;;;9.60;99.90;;;;;;5031157;28;20068;-74
2022/05/31 04:03:48;;;;;;;4.40;3.60;;;9.60;99.90;;;;;;5022481;28;20030;-76
2022/05/31 04:06:13;;;;;;;5.85;3.63;;;9.60;99.90;;;;;;5025931;28;20032;-75
2022/05/31 04:08:39;;;;;;;5.38;3.78;;;9.60;99.90;;;;;;5042083;28;20083;-75
2022/05/31 04:11:05;;;;;;;6.72;4.63;;;9.60;99.90;;;;;;5013022;28;20124;-76
2022/05/31 04:13:30;;;;;;;5.45;3.70;;;9.60;99.90;;;;;;5013284;28;20053;-75
2022/05/31 04:16:22;;;;;;;7.03;4.38;;;9.60;99.90;;;;;;5023211;28;20095;-75
2022/05/31 04:18:48;;;;;;;9.00;4.03;;;9.60;99.90;;;;;;5026078;28;20042;-75
2022/05/31 04:21:18;;;;;;;3.97;2.97;;;9.60;99.90;;;;;;5009237;28;20022;-75
2022/05/31 04:23:58;;;;;;;4.85;3.50;;;9.70;99.90;;;;;;5023972;28;20444;-76
2022/05/31 04:26:30;;;;;;;4.28;3.72;;;9.70;99.90;;;;;;5022277;28;20030;-75
2022/05/31 04:28:56;;;;;;;5.32;4.03;;;9.70;99.90;;;;;;5017802;28;20034;-75
2022/05/31 04:31:22;;;;;;;6.20;4.10;;;9.70;99.90;;;;;;5029914;28;20060;-75
2022/05/31 04:33:48;;;;;;;3.08;2.78;;;9.70;99.90;;;;;;5023985;28;20037;-75
2022/05/31 04:36:16;;;;;;;4.28;3.70;;;9.80;99.90;;;;;;5023131;28;20400;-76
2022/05/31 04:38:42;;;;;;;5.43;3.50;;;9.80;99.90;;;;;;5022722;28;20030;-75
2022/05/31 04:41:16;;;;;;;4.13;3.72;;;9.90;99.90;;;;;;5019760;28;20056;-75
2022/05/31 04:43:42;;;;;;;4.45;3.55;;;9.90;99.90;;;;;;5019150;28;20041;-75
2022/05/31 04:46:16;;;;;;;5.60;3.42;;;9.90;99.90;;;;;;5005818;28;20037;-75
2022/05/31 04:48:42;;;;;;;3.25;2.53;;;10.00;99.90;;;;;;5015189;28;20033;-75
2022/05/31 04:51:07;;;;;;;3.60;3.13;;;10.00;99.90;;;;;;5013230;28;20453;-75
2022/05/31 04:53:33;;;;;;;3.95;2.55;;;10.00;99.90;;;;;;5005076;28;20029;-75
2022/05/31 04:56:13;;;;;;;3.97;3.00;;;10.00;99.90;;;;;;5028699;28;20091;-75
2022/05/31 04:58:39;;;;;;;4.75;3.83;;;10.00;99.90;;;;;;5019764;28;20024;-75
2022/05/31 05:01:07;;;;;;;4.40;3.70;;;10.00;99.90;;;;;;5022395;28;20033;-75
2022/05/31 05:03:37;;;;;;;4.35;3.33;;;10.00;99.90;;;;;;4994210;28;20214;-75
2022/05/31 05:06:05;;;;;;;3.55;3.25;;;10.00;99.90;;;;;;5017124;28;20108;-75
2022/05/31 05:08:31;;;;;;;5.05;3.85;;;10.10;99.90;;;;;;5017118;28;20517;-74
2022/05/31 05:11:00;;;;;;;4.63;3.22;;;10.10;99.90;;;;;;5017727;28;20033;-75
2022/05/31 05:13:26;;;;;;;4.68;3.67;;;10.10;99.90;;;;;;5020398;28;20086;-74
2022/05/31 05:15:53;;;;;;;4.43;4.03;;;10.10;99.90;;;;;;5019716;28;20103;-75
2022/05/31 05:18:19;;;;;;;4.18;3.53;;;10.10;99.90;;;;;;5005447;28;20018;-74
2022/05/31 05:20:45;;;;;;;4.07;3.67;;;10.10;99.90;;;;;;4999739;28;20041;-73
2022/05/31 05:23:11;;;;;;;8.23;3.92;;;10.10;99.90;;;;;;5023363;28;20045;-72
2022/05/31 05:25:37;;;;;;;3.90;3.50;;;10.00;99.90;;;;;;5016794;28;20033;-71
2022/05/31 05:30:38;;;;;;;5.15;2.70;;;10.00;99.90;;;;;;5011136;28;20506;-72
2022/05/31 05:30:48;;;;;;;2.97;2.78;;;10.00;99.90;;;;;;5018136;28;20041;-70
2022/05/31 05:33:14;;;;;;;4.95;2.65;;;9.90;99.90;;;;;;5012569;28;20038;-70
2022/05/31 05:35:40;;;;;;;2.67;2.38;;;9.90;99.90;;;;;;4998050;28;20049;-70
2022/05/31 05:38:06;;;;;;;4.47;2.95;;;9.90;99.90;;;;;;5008929;28;20022;-70
2022/05/31 05:40:33;;;;;;;2.88;2.58;;;9.80;99.90;;;;;;5008674;28;20140;-70
2022/05/31 05:42:59;;;;;;;3.25;2.95;;;9.80;99.90;;;;;;5004593;28;20033;-70
2022/05/31 05:45:24;;;;;;;3.58;3.20;;;9.80;99.90;;;;;;5007340;28;20442;-70
2022/05/31 05:47:50;;;;;;;6.38;4.03;;;9.70;99.90;;;;;;5014397;28;20045;-71
2022/05/31 05:50:16;;;;;;;5.80;3.88;;;9.80;99.90;;;;;;5008676;28;20498;-71
2022/05/31 05:52:47;;;;;;;4.68;3.88;;;9.80;99.90;;;;;;5010024;28;20037;-71
2022/05/31 05:55:13;;;;;;;7.30;3.38;;;9.80;99.90;;;;;;5028139;28;20045;-71
2022/05/31 05:57:38;;;;;;;4.07;3.33;;;9.80;99.90;;;;;;5020531;28;20523;-71
2022/05/31 06:00:04;;;;;;;4.53;3.78;;;9.80;99.90;;;;;;5000732;28;20116;-70
2022/05/31 06:02:32;;;;;;;4.40;2.92;;;9.80;99.90;;;;;;5010896;28;20124;-71
2022/05/31 06:05:09;;;;;;;4.55;3.35;;;9.80;99.90;;;;;;5014671;28;20025;-71
2022/05/31 06:07:39;;;;;;;3.03;2.75;;;9.80;99.90;;;;;;5023021;28;20082;-70
2022/05/31 06:10:37;;;;;;;3.40;2.55;;;9.80;99.90;;;;;;5014172;28;20032;-70
2022/05/31 06:13:09;;;;;;;5.00;3.45;;;9.70;99.90;;;;;;5023111;28;20412;-71
2022/05/31 06:15:40;;;;;;;2.97;2.78;;;9.70;99.90;;;;;;5015351;28;20045;-71
2022/05/31 06:18:14;;;;;;;3.67;2.88;;;9.80;99.90;;;;;;5006657;28;20034;-70
2022/05/31 06:20:44;;;;;;;4.78;3.33;;;9.80;99.90;;;;;;5009961;28;20045;-70
2022/05/31 06:23:09;;;;;;;4.40;3.28;;;9.80;99.90;;;;;;5005541;28;20560;-71
2022/05/31 06:25:36;;;;;;;3.53;2.67;;;9.80;99.90;;;;;;5014399;28;20045;-70
2022/05/31 06:28:02;;;;;;;3.33;2.80;;;9.80;99.90;;;;;;5012106;28;20030;-71
2022/05/31 06:30:28;;;;;;;3.42;2.55;;;9.90;99.90;;;;;;5020694;28;20034;-71
2022/05/31 06:32:55;;;;;;;4.65;3.13;;;9.90;99.90;;;;;;5017491;28;20557;-72
2022/05/31 06:35:20;;;;;;;3.50;3.17;;;9.80;99.90;;;;;;5020104;28;20128;-71
2022/05/31 06:37:46;;;;;;;4.78;3.72;;;10.00;99.90;;;;;;5016059;28;20342;-71
2022/05/31 06:40:12;;;;;;;6.75;3.58;;;10.20;99.90;;;;;;5003117;28;20571;-71
2022/05/31 06:42:37;;;;;;;3.45;2.83;;;10.40;99.90;;;;;;5002414;28;20447;-71
2022/05/31 06:45:03;;;;;;;3.00;2.70;;;10.60;99.90;;;;;;5004310;28;20493;-71
2022/05/31 06:47:29;;;;;;;4.90;3.20;;;10.70;99.90;;;;;;5002897;28;20639;-71
2022/05/31 06:49:55;;;;;;;2.65;2.45;;;10.80;99.90;;;;;;5001668;28;20256;-71
2022/05/31 06:57:49;;;;;;;3.85;2.92;;;10.90;99.90;;;;;;5012438;28;20106;-71
2022/05/31 07:00:21;;;;;;;3.83;2.80;;;11.10;99.90;;;;;;5006384;28;20034;-71
2022/05/31 07:02:48;;;;;;;2.13;1.92;;;11.30;99.90;;;;;;5010311;28;20484;-71
2022/05/31 07:05:14;;;;;;;3.80;2.42;;;11.50;99.90;;;;;;4987987;28;20100;-71
2022/05/31 07:07:40;;;;;;;2.20;2.03;;;11.90;99.90;;;;;;5003220;28;20179;-71
2022/05/31 07:10:07;;;;;;;2.58;2.28;;;12.00;99.90;;;;;;5006720;28;20030;-71
2022/05/31 07:12:33;;;;;;;3.20;2.05;;;12.10;99.90;;;;;;5006736;28;20029;-71
2022/05/31 07:14:59;;;;;;;3.00;1.83;;;12.10;99.90;;;;;;5005538;28;20049;-71
2022/05/31 07:17:25;;;;;;;3.70;2.25;;;12.00;99.90;;;;;;5004492;28;20635;-71
2022/05/31 07:19:51;;;;;;;2.50;1.70;;;12.30;99.90;;;;;;5007176;28;20100;-72
2022/05/31 07:22:16;;;;;;;1.67;1.48;;;12.30;99.90;;;;;;5008508;28;20028;-71
2022/05/31 07:24:42;;;;;;;2.00;1.63;;;12.70;99.90;;;;;;5006739;28;20398;-71
2022/05/31 07:27:08;;;;;;;2.47;1.33;;;13.30;99.90;;;;;;5022885;28;20033;-71
2022/05/31 07:29:34;;;;;;;2.17;1.50;;;13.90;99.90;;;;;;5019160;28;20030;-72
2022/05/31 07:32:00;;;;;;;1.80;1.70;;;14.20;99.90;;;;;;5014444;28;20488;-72
2022/05/31 07:34:26;;;;;;;2.10;1.50;;;13.90;99.90;;;;;;5008340;28;20036;-71
2022/05/31 07:36:53;;;;;;;1.50;1.40;;;13.90;99.90;;;;;;5018238;28;20223;-72
2022/05/31 07:39:20;;;;;;;1.65;1.65;;;14.40;99.90;;;;;;4991119;28;21035;-72
2022/05/31 07:41:46;;;;;;;2.10;1.63;;;15.40;99.90;;;;;;5011030;28;20319;-71
2022/05/31 07:44:14;;;;;;;1.00;1.00;;;18.70;99.90;;;;;;5017557;28;20648;-72
2022/05/31 07:46:39;;;;;;;3.10;1.13;;;19.40;99.90;;;;;;5018655;28;20030;-71
2022/05/31 07:49:05;;;;;;;1.00;0.68;;;20.30;94.00;;;;;;5008540;28;20497;-71
2022/05/31 07:51:31;;;;;;;1.25;0.82;;;20.10;95.60;;;;;;5011814;28;20029;-71
2022/05/31 07:53:57;;;;;;;1.05;0.68;;;23.70;80.10;;;;;;5006186;28;20487;-72
2022/05/31 07:56:23;;;;;;;1.52;0.70;;;26.70;64.10;;;;;;5001858;28;20482;-72
2022/05/31 07:58:49;;;;;;;0.77;0.57;;;27.90;54.80;;;;;;5018613;28;20535;-72
2022/05/31 08:01:17;;;;;;;1.23;0.60;;;30.10;45.20;;;;;;5016109;28;20033;-72
2022/05/31 08:03:44;;;;;;;2.05;0.55;;;30.80;41.70;;;;;;5014044;28;20403;-72
2022/05/31 08:06:11;;;;;;;0.40;0.40;;;32.30;39.50;;;;;;5010629;28;20030;-72
2022/05/31 08:08:37;;;;;;;1.30;0.68;;;32.00;40.10;;;;;;5014998;28;20113;-72
2022/05/31 08:11:12;;;;;;;0.82;0.50;;;29.50;40.80;;;;;;5017238;28;20037;-72
2022/05/31 08:13:38;;;;;;;0.88;0.75;;;28.50;49.20;;;;;;5013522;28;20072;-72
2022/05/31 08:16:05;;;;;;;2.10;0.35;;;30.10;44.00;;;;;;5008829;28;20498;-72
2022/05/31 08:18:31;;;;;;;1.00;0.28;;;31.30;43.90;;;;;;5005937;28;20050;-72
2022/05/31 08:21:01;;;;;;;2.05;0.50;;;33.00;38.70;;;;;;5002037;28;20125;-70
2022/05/31 08:23:27;;;;;;;0.80;0.55;;;30.20;39.90;;;;;;5018438;28;20032;-72
2022/05/31 08:25:56;;;;;;;1.52;0.40;;;30.50;44.70;;;;;;5009702;28;20288;-73
2022/05/31 08:28:23;;;;;;;0.95;0.50;;;30.00;41.90;;;;;;5000454;28;20753;-72
2022/05/31 08:30:53;;;;;;;2.25;0.45;;;27.30;49.00;;;;;;5012217;28;20045;-72
2022/05/31 08:33:18;;;;;;;0.82;0.52;;;27.50;49.70;;;;;;5006682;28;20033;-72
2022/05/31 08:35:44;;;;;;;1.42;0.50;;;27.30;47.50;;;;;;5008618;28;20044;-73
2022/05/31 08:38:10;;;;;;;1.67;0.80;;;25.10;48.20;;;;;;5003348;28;20481;-73
2022/05/31 08:40:53;;;;;;;1.55;0.70;;;23.20;60.90;;;;;;5005418;28;20648;-73
2022/05/31 08:43:26;;;;;;;3.33;0.80;;;22.00;75.40;;;;;;5010899;28;20025;-73
2022/05/31 08:45:53;;;;;;;3.95;0.80;;;20.30;90.30;;;;;;5003941;28;20025;-73
2022/05/31 08:48:33;;;;;;;4.72;0.85;;;19.00;96.20;;;;;;5011035;28;20074;-73
2022/05/31 08:56:57;;;;;;;3.67;1.13;;;16.60;99.90;;;;;;5003672;28;20593;-73
2022/05/31 08:59:46;;;;;;;3.85;1.30;;;16.40;99.90;;;;;;5005531;28;20477;-73
2022/05/31 09:02:32;;;;;;;2.58;1.10;;;16.40;99.90;;;;;;5006906;28;20556;-72
2022/05/31 09:05:07;;;;;;;2.55;1.42;;;16.10;99.90;;;;;;5004133;28;20132;-72
2022/05/31 09:07:47;;;;;;;2.03;1.10;;;15.70;99.90;;;;;;5018775;28;20071;-73
2022/05/31 09:10:41;;;;;;;3.35;1.20;;;15.70;99.90;;;;;;5018824;28;20032;-73
2022/05/31 09:13:18;;;;;;;2.08;1.42;;;15.60;99.90;;;;;;4994859;28;20101;-72
2022/05/31 09:16:18;;;;;;;5.18;1.70;;;15.70;99.90;;;;;;5003466;28;20424;-73
2022/05/31 09:19:02;;;;;;;2.75;1.20;;;15.50;99.90;;;;;;5011677;28;20049;-73
2022/05/31 09:21:45;;;;;;;16.63;6.03;;;15.40;99.90;;;;;;5006031;28;20434;-74
2022/05/31 09:24:16;;;;;;;3.13;1.90;;;15.50;99.90;;;;;;5014106;28;20025;-74
2022/05/31 09:27:03;;;;;;;2.30;1.75;;;15.20;99.90;;;;;;5001974;28;20331;-72
2022/05/31 09:29:47;;;;;;;2.05;1.73;;;15.00;99.90;;;;;;5017863;28;20211;-74
2022/05/31 09:32:38;;;;;;;2.80;1.85;;;14.80;99.90;;;;;;5023780;28;20090;-74
2022/05/31 09:35:31;;;;;;;2.67;1.77;;;14.90;99.90;;;;;;5015040;28;20037;-75
2022/05/31 09:38:34;;;;;;;3.67;1.50;;;15.00;99.90;;;;;;4992664;28;20133;-74
2022/05/31 09:41:22;;;;;;;2.45;1.60;;;15.40;99.90;;;;;;5017994;28;20040;-73
2022/05/31 09:44:00;;;;;;;3.85;1.30;;;15.60;99.90;;;;;;5014689;28;20131;-74
2022/05/31 09:46:56;;;;;;;2.83;1.20;;;15.60;99.90;;;;;;5017498;28;20040;-75
2022/05/31 09:49:36;;;;;;;1.77;1.20;;;15.50;99.90;;;;;;5008742;28;20220;-75
2022/05/31 09:52:07;;;;;;;3.50;2.10;;;15.50;99.90;;;;;;5007446;28;20025;-74
2022/05/31 09:58:01;;;;;;;2.03;1.27;;;14.90;99.90;;;;;;5016307;28;21130;-73
2022/05/31 10:00:28;;;;;;;6.15;1.80;;;14.40;99.90;;;;;;5003817;28;20033;-73
2022/05/31 10:03:12;;;;;;;4.55;1.80;;;14.10;99.90;;;;;;5009782;28;20099;-74
2022/05/31 10:05:40;;;;;;;3.85;2.00;;;13.70;99.90;;;;;;5008803;28;20038;-74
2022/05/31 10:08:15;;;;;;;4.35;1.85;;;13.60;99.90;;;;;;5006510;28;20040;-74
2022/05/31 10:10:47;;;;;;;1.77;1.33;;;13.70;99.90;;;;;;5019439;28;20480;-73
2022/05/31 10:13:33;;;;;;;4.85;2.38;;;13.80;99.90;;;;;;5018889;28;20053;-73
2022/05/31 10:16:09;;;;;;;5.15;1.60;;;14.40;99.90;;;;;;5028003;28;20060;-73
2022/05/31 10:18:46;;;;;;;5.80;1.50;;;15.40;99.90;;;;;;5000645;28;20593;-73
2022/05/31 10:21:11;;;;;;;2.00;1.02;;;17.50;99.90;;;;;;5018174;28;20107;-73
2022/05/31 10:23:44;;;;;;;1.92;0.85;;;19.60;99.70;;;;;;4999872;28;20124;-73
2022/05/31 10:26:24;;;;;;;0.57;0.57;;;19.90;97.20;;;;;;5015510;28;20363;-74
2022/05/31 10:29:12;;;;;;;1.00;0.60;;;19.90;95.20;;;;;;5021744;28;20036;-73
2022/05/31 10:31:40;;;;;;;2.25;1.05;;;20.10;92.50;;;;;;5016185;28;20034;-73
2022/05/31 10:34:40;;;;;;;2.05;0.52;;;21.50;90.90;;;;;;5019763;28;20116;-73
2022/05/31 10:37:20;;;;;;;1.50;0.90;;;24.00;76.20;;;;;;5034316;28;20072;-74
2022/05/31 10:40:09;;;;;;;6.05;1.02;;;25.30;64.70;;;;;;5015413;28;20032;-74
2022/05/31 10:42:41;;;;;;;1.77;0.70;;;25.60;63.80;;;;;;5000758;28;20535;-74
2022/05/31 10:45:10;;;;;;;0.80;0.70;;;24.60;64.30;;;;;;5022280;28;20071;-74
2022/05/31 10:47:35;;;;;;;2.35;0.70;;;23.20;58.30;;;;;;5023215;28;20203;-74
2022/05/31 10:50:02;;;;;;;2.13;0.80;;;22.00;77.10;;;;;;5025982;28;20025;-71
2022/05/31 10:52:46;;;;;;;1.20;0.80;;;21.40;78.40;;;;;;5011676;28;20033;-72
2022/05/31 10:55:39;;;;;;;3.33;0.82;;;21.00;84.60;;;;;;5035188;28;20049;-72
2022/05/31 10:58:13;;;;;;;0.70;0.70;;;21.90;87.90;;;;;;5011354;28;20062;-74
2022/05/31 11:00:49;;;;;;;1.98;0.88;;;23.10;76.30;;;;;;5016544;28;20021;-73
2022/05/31 11:03:17;;;;;;;1.83;0.70;;;23.30;74.80;;;;;;5017441;28;20034;-75
2022/05/31 11:06:04;;;;;;;1.08;0.60;;;23.30;65.70;;;;;;5015583;28;20185;-75
2022/05/31 11:11:49;;;;;;;4.70;0.70;;;22.90;65.80;;;;;;5025059;28;20499;-75
2022/05/31 11:14:45;;;;;;;1.65;0.70;;;23.50;73.20;;;;;;5012666;28;20050;-76
2022/05/31 11:17:34;;;;;;;2.10;0.90;;;23.70;69.60;;;;;;4988526;28;20164;-74
2022/05/31 11:20:12;;;;;;;2.70;1.25;;;24.60;62.50;;;;;;5013528;28;20899;-73
2022/05/31 11:22:53;;;;;;;1.95;0.60;;;23.30;51.90;;;;;;5003085;28;20047;-74
2022/05/31 11:25:40;;;;;;;2.50;0.82;;;21.80;56.20;;;;;;5014091;28;20124;-73
2022/05/31 11:28:24;;;;;;;1.40;1.10;;;20.30;70.60;;;;;;5014227;28;20622;-73
2022/05/31 11:31:18;;;;;;;2.47;0.50;;;18.80;85.30;;;;;;5017216;28;20025;-73
2022/05/31 11:34:05;;;;;;;4.85;1.00;;;18.00;87.80;;;;;;5012780;28;20496;-75
2022/05/31 11:36:39;;;;;;;2.47;0.88;;;17.70;96.50;;;;;;5020085;28;20072;-75
2022/05/31 11:39:28;;;;;;;1.02;0.80;;;17.40;95.90;;;;;;5008421;28;20030;-76
2022/05/31 11:42:20;;;;;;;0.95;0.70;;;17.20;90.10;;;;;;5021751;28;20045;-75
2022/05/31 11:45:08;;;;;;;2.28;0.65;;;16.70;93.50;;;;;;5012262;28;20060;-76
2022/05/31 11:47:51;;;;;;;1.58;1.00;;;16.40;94.60;;;;;;5011315;28;20033;-75
2022/05/31 11:50:35;;;;;;;2.50;1.20;;;16.00;97.30;;;;;;5007339;28;20148;-75
2022/05/31 11:53:26;;;;;;;1.75;0.88;;;15.90;99.90;;;;;;5009377;28;20099;-77
2022/05/31 11:56:00;;;;;;;4.35;1.10;;;15.80;98.70;;;;;;5008249;28;20040;-76
2022/05/31 11:58:42;;;;;;;3.25;1.00;;;16.10;99.90;;;;;;5007270;28;20513;-75
2022/05/31 12:01:17;;;;;;;3.45;0.90;;;17.10;99.90;;;;;;5000867;28;20043;-75
2022/05/31 12:04:05;;;;;;;4.30;0.77;;;18.40;96.80;;;;;;5008454;28;20036;-76
2022/05/31 12:06:54;;;;;;;3.83;0.90;;;19.50;92.70;;;;;;5002330;28;20037;-76
2022/05/31 12:09:48;;;;;;;1.73;0.68;;;20.00;90.50;;;;;;5008802;28;20037;-75
2022/05/31 12:12:33;;;;;;;5.85;1.15;;;20.70;91.80;;;;;;5011320;28;20120;-76
2022/05/31 12:15:06;;;;;;;2.15;0.60;;;20.80;84.50;;;;;;5013186;28;20052;-75
2022/05/31 12:17:48;;;;;;;2.65;0.98;;;20.50;84.60;;;;;;5015752;28;20044;-75
2022/05/31 12:20:38;;;;;;;8.82;4.15;;;20.50;85.50;;;;;;5010600;28;20419;-76
2022/05/31 12:23:31;;;;;;;5.22;0.90;;;20.10;75.10;;;;;;5011930;28;20188;-77
2022/05/31 12:25:59;;;;;;;3.72;1.00;;;19.10;93.20;;;;;;4996508;28;20057;-74
2022/05/31 12:28:37;;;;;;;4.53;1.10;;;18.50;94.40;;;;;;4998358;28;20052;-74
2022/05/31 12:31:19;;;;;;;3.97;1.30;;;17.60;98.80;;;;;;5022193;28;20031;-73
2022/05/31 12:33:47;;;;;;;3.42;1.15;;;17.10;99.90;;;;;;5039041;28;20033;-73
2022/05/31 12:36:13;;;;;;;4.85;1.45;;;16.40;99.90;;;;;;5029456;28;20201;-73
2022/05/31 12:39:04;;;;;;;4.22;1.00;;;16.10;99.90;;;;;;5024736;28;20025;-73
2022/05/31 12:41:40;;;;;;;2.17;1.27;;;16.10;99.90;;;;;;5018494;28;20177;-73
2022/05/31 12:44:34;;;;;;;1.63;0.80;;;16.80;99.90;;;;;;5011760;28;20521;-73
2022/05/31 12:47:32;;;;;;;1.10;0.90;;;17.80;99.90;;;;;;5040378;28;20131;-71
2022/05/31 12:50:10;;;;;;;3.33;0.73;;;18.80;99.90;;;;;;5039101;28;20036;-72
2022/05/31 12:55:13;;;;;;;3.28;1.02;;;20.00;99.90;;;;;;5039736;28;20025;-72
2022/05/31 13:00:51;;;;;;;1.50;0.57;;;20.30;99.90;;;;;;4999388;28;20032;-73
2022/05/31 13:03:36;;;;;;;6.93;1.38;;;20.20;97.00;;;;;;5013014;28;20151;-74
2022/05/31 13:06:07;;;;;;;4.35;0.55;;;20.10;94.70;;;;;;5039060;28;20021;-73
2022/05/31 13:08:48;;;;;;;2.08;0.60;;;19.60;97.50;;;;;;5036992;28;20041;-73
2022/05/31 13:20:27;;;;;;;1.70;0.60;;;17.20;99.90;;;;;;4996938;28;20071;-74
2022/05/31 13:22:59;;;;;;;10.47;1.17;;;17.90;99.90;;;;;;5014237;28;20235;-75
2022/05/31 13:25:30;;;;;;;1.27;0.70;;;18.40;97.00;;;;;;4987603;28;20302;-74
2022/05/31 13:28:02;;;;;;;3.13;0.98;;;18.30;93.80;;;;;;5018713;28;20270;-75
2022/05/31 13:30:40;;;;;;;1.13;0.60;;;18.70;96.60;;;;;;5012172;28;20033;-75
2022/05/31 13:33:16;;;;;;;2.92;0.68;;;19.60;99.90;;;;;;5007449;28;20025;-75
2022/05/31 13:35:43;;;;;;;2.70;0.52;;;20.40;95.70;;;;;;5007969;28;20493;-72
2022/05/31 13:38:21;;;;;;;2.35;0.60;;;20.80;90.30;;;;;;5015033;28;20073;-73
2022/05/31 13:40:54;;;;;;;3.88;0.88;;;19.30;85.40;;;;;;5000567;28;20034;-72
2022/05/31 13:43:52;;;;;;;3.95;0.63;;;18.80;96.50;;;;;;5033567;28;20055;-75
2022/05/31 13:46:31;;;;;;;4.72;0.60;;;19.10;94.80;;;;;;5037705;28;20107;-73
2022/05/31 13:49:16;;;;;;;0.63;0.40;;;19.50;98.10;;;;;;5024277;28;20507;-75